createdAt,value
2023-05-06T00:02:42.483Z,15.50
2023-05-06T00:05:31.048Z,15.52
2023-05-06T00:08:21.002Z,15.54
2023-05-06T00:11:09.489Z,15.55
2023-05-06T00:13:57.969Z,15.57
2023-05-06T00:16:46.565Z,15.56
2023-05-06T00:19:35.083Z,15.54
2023-05-06T00:22:23.614Z,15.53
2023-05-06T00:25:13.429Z,15.54
2023-05-06T00:28:01.957Z,15.55
2023-05-06T00:30:50.476Z,15.56
2023-05-06T00:33:38.979Z,15.45
2023-05-06T00:36:27.672Z,15.48
2023-05-06T00:39:18.992Z,15.52
2023-05-06T00:42:08.890Z,15.49
2023-05-06T00:44:57.317Z,15.41
2023-05-06T00:47:45.932Z,15.44
2023-05-06T00:50:34.975Z,15.46
2023-05-06T00:53:23.558Z,15.44
2023-05-06T00:56:12.257Z,15.16
2023-05-06T00:59:02.224Z,15.33
2023-05-06T01:01:52.164Z,15.41
2023-05-06T01:04:41.908Z,15.42
2023-05-06T01:07:42.341Z,15.43
2023-05-06T01:10:36.426Z,15.41
2023-05-06T01:13:31.114Z,15.38
2023-05-06T01:16:21.808Z,15.38
2023-05-06T01:19:12.341Z,15.34
2023-05-06T01:22:02.361Z,15.33
2023-05-06T01:24:52.130Z,15.33
2023-05-06T01:27:40.626Z,15.30
2023-05-06T01:30:35.297Z,15.27
2023-05-06T01:33:28.317Z,14.80
2023-05-06T01:36:21.490Z,15.24
2023-05-06T01:39:18.655Z,15.18
2023-05-06T01:42:10.777Z,15.13
2023-05-06T01:45:01.513Z,15.07
2023-05-06T01:47:50.187Z,15.02
2023-05-06T01:50:38.714Z,14.96
2023-05-06T01:53:27.207Z,14.91
2023-05-06T01:56:16.324Z,14.82
2023-05-06T01:59:06.594Z,14.81
2023-05-06T02:01:55.124Z,14.77
2023-05-06T02:04:43.658Z,14.67
2023-05-06T02:07:32.110Z,14.65
2023-05-06T02:10:20.611Z,14.57
2023-05-06T02:13:10.246Z,14.49
2023-05-06T02:16:00.179Z,14.48
2023-05-06T02:18:48.678Z,14.37
2023-05-06T02:21:37.880Z,14.40
2023-05-06T02:24:26.876Z,14.37
2023-05-06T02:27:15.386Z,14.32
2023-05-06T02:30:03.931Z,14.24
2023-05-06T02:32:53.800Z,14.23
2023-05-06T02:35:42.273Z,14.12
2023-05-06T02:38:30.729Z,14.10
2023-05-06T02:41:19.187Z,14.05
2023-05-06T02:44:07.634Z,14.01
2023-05-06T02:46:56.096Z,13.97
2023-05-06T02:49:45.938Z,13.92
2023-05-06T02:52:34.966Z,13.86
2023-05-06T02:55:23.673Z,13.88
2023-05-06T02:58:12.208Z,13.89
2023-05-06T03:01:00.714Z,13.82
2023-05-06T03:03:49.246Z,13.76
2023-05-06T03:06:39.048Z,13.71
2023-05-06T03:09:27.534Z,13.61
2023-05-06T03:12:16.543Z,13.62
2023-05-06T03:15:05.908Z,13.55
2023-05-06T03:17:54.451Z,13.54
2023-05-06T03:20:42.919Z,13.51
2023-05-06T03:23:32.918Z,13.45
2023-05-06T03:26:21.669Z,13.43
2023-05-06T03:29:10.153Z,13.36
2023-05-06T03:31:58.792Z,13.25
2023-05-06T03:34:47.254Z,13.13
2023-05-06T03:37:35.785Z,13.06
2023-05-06T03:40:25.704Z,13.04
2023-05-06T03:43:14.132Z,13.00
2023-05-06T03:46:02.671Z,12.96
2023-05-06T03:48:51.164Z,13.01
2023-05-06T03:51:39.643Z,12.97
2023-05-06T03:54:28.132Z,12.89
2023-05-06T03:57:17.943Z,12.82
2023-05-06T04:00:07.818Z,12.79
2023-05-06T04:02:56.399Z,12.77
2023-05-06T04:05:45.197Z,12.66
2023-05-06T04:08:33.652Z,12.66
2023-05-06T04:11:22.096Z,12.64
2023-05-06T04:14:12.005Z,12.64
2023-05-06T04:17:00.788Z,12.63
2023-05-06T04:19:49.523Z,12.65
2023-05-06T04:22:38.325Z,12.58
2023-05-06T04:25:27.977Z,12.59
2023-05-06T04:28:17.570Z,12.41
2023-05-06T04:31:08.950Z,12.60
2023-05-06T04:33:57.453Z,12.66
2023-05-06T04:36:47.002Z,12.69
2023-05-06T04:39:36.913Z,12.62
2023-05-06T04:42:25.565Z,12.58
2023-05-06T04:45:14.077Z,12.61
2023-05-06T04:48:03.946Z,12.63
2023-05-06T04:50:52.528Z,12.52
2023-05-06T04:53:41.243Z,12.47
2023-05-06T04:56:29.742Z,12.46
2023-05-06T04:59:18.294Z,12.46
2023-05-06T05:02:06.866Z,12.54
2023-05-06T05:04:56.713Z,12.59
2023-05-06T05:07:45.223Z,12.61
2023-05-06T05:10:33.762Z,12.59
2023-05-06T05:13:22.445Z,12.64
2023-05-06T05:16:11.008Z,12.75
2023-05-06T05:19:02.194Z,12.83
2023-05-06T05:21:53.336Z,12.87
2023-05-06T05:24:41.793Z,12.90
2023-05-06T05:27:30.525Z,12.70
2023-05-06T05:30:19.307Z,12.89
2023-05-06T05:33:07.985Z,13.03
2023-05-06T05:35:56.539Z,13.09
2023-05-06T05:38:47.771Z,13.13
2023-05-06T05:41:36.275Z,13.28
2023-05-06T05:44:24.703Z,13.39
2023-05-06T05:47:13.461Z,13.44
2023-05-06T05:50:02.100Z,13.51
2023-05-06T05:52:51.404Z,13.51
2023-05-06T05:55:41.262Z,13.81
2023-05-06T05:58:29.809Z,13.95
2023-05-06T06:01:18.552Z,14.05
2023-05-06T06:04:07.065Z,14.17
2023-05-06T06:06:58.019Z,14.33
2023-05-06T06:09:46.900Z,14.53
2023-05-06T06:12:36.801Z,14.65
2023-05-06T06:15:25.636Z,14.79
2023-05-06T06:18:14.375Z,15.06
2023-05-06T06:21:02.919Z,14.74
2023-05-06T06:23:51.401Z,15.39
2023-05-06T06:26:39.897Z,15.49
2023-05-06T06:29:29.722Z,15.68
2023-05-06T06:32:18.303Z,15.96
2023-05-06T06:35:07.560Z,16.21
2023-05-06T06:37:56.130Z,16.43
2023-05-06T06:40:44.640Z,16.35
2023-05-06T06:43:33.275Z,16.67
2023-05-06T06:46:23.837Z,16.44
2023-05-06T06:49:12.562Z,16.94
2023-05-06T06:52:01.207Z,16.59
2023-05-06T06:54:49.629Z,17.39
2023-05-06T06:57:38.158Z,17.53
2023-05-06T07:00:26.811Z,17.66
2023-05-06T07:03:19.479Z,17.86
2023-05-06T07:06:09.071Z,17.97
2023-05-06T07:08:57.652Z,18.13
2023-05-06T07:11:46.251Z,18.19
2023-05-06T07:14:35.257Z,17.86
2023-05-06T07:17:26.988Z,18.17
2023-05-06T07:20:17.203Z,18.57
2023-05-06T07:23:08.414Z,18.53
2023-05-06T07:25:56.851Z,18.58
2023-05-06T07:28:45.411Z,18.72
2023-05-06T07:31:34.714Z,18.82
2023-05-06T07:34:23.292Z,19.10
2023-05-06T07:37:13.195Z,19.37
2023-05-06T07:40:01.831Z,19.59
2023-05-06T07:42:50.438Z,19.68
2023-05-06T07:45:38.996Z,19.68
2023-05-06T07:48:27.820Z,19.85
2023-05-06T07:51:17.712Z,19.90
2023-05-06T07:54:07.503Z,20.07
2023-05-06T07:56:57.123Z,20.11
2023-05-06T07:59:48.861Z,20.16
2023-05-06T08:02:38.632Z,20.16
2023-05-06T08:05:27.257Z,20.43
2023-05-06T08:08:15.967Z,20.50
2023-05-06T08:11:06.105Z,20.72
2023-05-06T08:13:54.776Z,20.67
2023-05-06T08:16:43.504Z,20.63
2023-05-06T08:19:32.164Z,20.24
2023-05-06T08:22:20.675Z,19.88
2023-05-06T08:25:10.715Z,19.51
2023-05-06T08:28:00.782Z,19.62
2023-05-06T08:30:51.306Z,19.59
2023-05-06T08:33:39.820Z,19.83
2023-05-06T08:36:29.263Z,19.96
2023-05-06T08:39:18.271Z,20.07
2023-05-06T08:42:07.162Z,20.13
2023-05-06T08:44:57.796Z,20.48
2023-05-06T08:47:47.419Z,20.67
2023-05-06T08:50:43.189Z,20.97
2023-05-06T08:53:32.026Z,21.04
2023-05-06T08:56:21.213Z,21.21
2023-05-06T08:59:09.997Z,21.24
2023-05-06T09:02:01.060Z,21.28
2023-05-06T09:04:49.689Z,21.26
2023-05-06T09:07:38.240Z,21.01
2023-05-06T09:10:32.642Z,21.22
2023-05-06T09:13:21.261Z,21.39
2023-05-06T09:16:09.914Z,20.22
2023-05-06T09:19:00.112Z,21.60
2023-05-06T09:21:50.037Z,21.60
2023-05-06T09:24:38.549Z,21.40
2023-05-06T09:27:28.536Z,21.47
2023-05-06T09:30:17.096Z,21.70
2023-05-06T09:33:06.135Z,21.67
2023-05-06T09:35:56.367Z,21.43
2023-05-06T09:38:44.878Z,21.28
2023-05-06T09:41:33.985Z,20.89
2023-05-06T09:44:24.006Z,20.89
2023-05-06T09:47:12.527Z,20.79
2023-05-06T09:50:02.591Z,20.59
2023-05-06T09:52:52.518Z,20.74
2023-05-06T09:55:41.274Z,20.56
2023-05-06T09:58:31.836Z,20.66
2023-05-06T10:01:32.848Z,20.69
2023-05-06T10:04:27.774Z,20.57
2023-05-06T10:07:19.559Z,20.71
2023-05-06T10:10:11.909Z,20.97
2023-05-06T10:13:00.422Z,21.26
2023-05-06T10:15:49.963Z,21.37
2023-05-06T10:18:39.137Z,21.24
2023-05-06T10:21:29.055Z,21.41
2023-05-06T10:24:20.110Z,21.44
2023-05-06T10:27:10.925Z,21.57
2023-05-06T10:30:00.900Z,21.30
2023-05-06T10:32:52.124Z,21.10
2023-05-06T10:35:49.213Z,21.46
2023-05-06T10:38:41.802Z,21.75
2023-05-06T10:41:30.674Z,22.15
2023-05-06T10:44:59.351Z,22.30
2023-05-06T10:48:09.609Z,22.69
2023-05-06T10:51:22.245Z,22.84
2023-05-06T10:54:11.371Z,22.81
2023-05-06T10:57:09.723Z,22.91
2023-05-06T10:59:59.609Z,23.21
2023-05-06T11:02:52.465Z,23.45
2023-05-06T11:05:51.684Z,22.99
2023-05-06T11:08:40.275Z,23.35
2023-05-06T11:11:48.039Z,23.16
2023-05-06T11:14:37.576Z,22.62
2023-05-06T11:17:34.848Z,22.85
2023-05-06T11:20:24.319Z,23.20
2023-05-06T11:23:12.768Z,23.14
2023-05-06T11:26:01.256Z,23.29
2023-05-06T11:28:51.448Z,23.55
2023-05-06T11:31:41.762Z,23.81
2023-05-06T11:34:32.624Z,23.56
2023-05-06T11:37:26.610Z,23.57
2023-05-06T11:40:16.368Z,23.40
2023-05-06T11:43:11.846Z,23.29
2023-05-06T11:46:00.435Z,23.11
2023-05-06T11:48:49.123Z,23.59
2023-05-06T11:51:38.936Z,23.78
2023-05-06T11:54:28.224Z,23.61
2023-05-06T11:57:16.682Z,23.54
2023-05-06T12:00:07.805Z,23.19
2023-05-06T12:02:56.926Z,23.17
2023-05-06T12:05:45.652Z,23.10
2023-05-06T12:08:37.236Z,23.32
2023-05-06T12:11:25.966Z,23.55
2023-05-06T12:14:14.855Z,23.42
2023-05-06T12:17:03.796Z,23.52
2023-05-06T12:19:52.316Z,23.63
2023-05-06T12:22:41.798Z,23.71
2023-05-06T12:25:31.719Z,23.57
2023-05-06T12:28:22.239Z,23.80
2023-05-06T12:31:20.802Z,23.47
2023-05-06T12:34:09.720Z,23.75
2023-05-06T12:36:58.220Z,23.95
2023-05-06T12:39:46.693Z,23.37
2023-05-06T12:42:36.588Z,23.29
2023-05-06T12:45:26.111Z,23.47
2023-05-06T12:48:17.471Z,23.52
2023-05-06T12:51:18.648Z,23.49
2023-05-06T12:54:29.822Z,23.65
2023-05-06T12:57:18.508Z,24.02
2023-05-06T13:00:10.975Z,24.13
2023-05-06T13:02:59.787Z,23.96
2023-05-06T13:05:50.181Z,23.94
2023-05-06T13:08:38.825Z,23.69
2023-05-06T13:11:27.939Z,23.86
2023-05-06T13:14:16.442Z,23.98
2023-05-06T13:17:06.756Z,24.13
2023-05-06T13:19:56.953Z,24.12
2023-05-06T13:22:54.472Z,24.06
2023-05-06T13:25:56.325Z,24.21
2023-05-06T13:28:52.367Z,24.16
2023-05-06T13:31:40.888Z,24.38
2023-05-06T13:34:30.891Z,24.56
2023-05-06T13:37:19.391Z,24.50
2023-05-06T13:40:09.191Z,24.59
2023-05-06T13:42:58.007Z,24.56
2023-05-06T13:45:46.653Z,24.18
2023-05-06T13:48:35.234Z,23.99
2023-05-06T13:51:27.464Z,24.33
2023-05-06T13:54:16.082Z,24.44
2023-05-06T13:57:05.009Z,24.40
2023-05-06T13:59:53.498Z,24.36
2023-05-06T14:02:42.378Z,24.19
2023-05-06T14:05:30.972Z,23.75
2023-05-06T14:08:20.833Z,23.56
2023-05-06T14:11:10.139Z,23.38
2023-05-06T14:13:58.575Z,23.37
2023-05-06T14:16:47.535Z,23.30
2023-05-06T14:19:36.142Z,23.27
2023-05-06T14:22:24.679Z,23.33
2023-05-06T14:25:14.542Z,23.34
2023-05-06T14:28:03.151Z,23.32
2023-05-06T14:30:52.057Z,23.37
2023-05-06T14:33:40.618Z,23.50
2023-05-06T14:36:29.076Z,23.69
2023-05-06T14:39:17.516Z,23.83
2023-05-06T14:42:07.468Z,23.76
2023-05-06T14:44:55.919Z,23.38
2023-05-06T14:47:44.612Z,23.54
2023-05-06T14:50:33.256Z,23.59
2023-05-06T14:53:21.824Z,23.86
2023-05-06T14:56:11.477Z,23.90
2023-05-06T14:59:03.687Z,23.86
2023-05-06T15:01:52.502Z,23.89
2023-05-06T15:04:40.991Z,23.71
2023-05-06T15:07:29.500Z,23.43
2023-05-06T15:10:18.083Z,23.39
2023-05-06T15:13:06.912Z,23.49
2023-05-06T15:15:57.103Z,23.27
2023-05-06T15:18:45.713Z,23.25
2023-05-06T15:21:34.189Z,23.41
2023-05-06T15:24:23.070Z,23.34
2023-05-06T15:27:11.524Z,23.39
2023-05-06T15:30:04.147Z,23.56
2023-05-06T15:32:54.041Z,23.66
2023-05-06T15:35:42.530Z,23.33
2023-05-06T15:39:00.491Z,23.58
2023-05-06T15:41:49.328Z,23.50
2023-05-06T15:44:37.883Z,23.51
2023-05-06T15:47:26.405Z,23.44
2023-05-06T15:50:28.921Z,23.35
2023-05-06T15:53:21.865Z,23.30
2023-05-06T15:56:18.249Z,23.30
2023-05-06T15:59:08.127Z,23.29
2023-05-06T16:04:48.326Z,23.15
2023-05-06T16:07:38.461Z,23.08
2023-05-06T16:10:26.984Z,23.08
2023-05-06T16:13:15.580Z,22.89
2023-05-06T16:16:04.337Z,22.87
2023-05-06T16:18:52.838Z,22.89
2023-05-06T16:21:41.333Z,22.92
2023-05-06T16:24:31.245Z,22.94
2023-05-06T16:27:19.996Z,22.98
2023-05-06T16:30:10.001Z,22.90
2023-05-06T16:32:58.655Z,22.91
2023-05-06T16:35:47.157Z,22.89
2023-05-06T16:38:35.671Z,22.78
2023-05-06T16:41:25.689Z,22.85
2023-05-06T16:44:14.201Z,22.72
2023-05-06T16:47:02.764Z,22.65
2023-05-06T16:49:51.486Z,22.69
2023-05-06T16:52:39.938Z,22.61
2023-05-06T16:55:28.494Z,22.45
2023-05-06T16:58:18.377Z,22.49
2023-05-06T17:01:08.187Z,22.48
2023-05-06T17:03:56.993Z,22.44
2023-05-06T17:06:45.556Z,22.47
2023-05-06T17:09:34.157Z,22.41
2023-05-06T17:12:23.837Z,22.47
2023-05-06T17:15:14.041Z,22.39
2023-05-06T17:18:02.560Z,22.30
2023-05-06T17:20:56.626Z,22.17
2023-05-06T17:23:45.647Z,22.23
2023-05-06T17:26:34.967Z,22.16
2023-05-06T17:29:23.394Z,22.12
2023-05-06T17:32:13.257Z,22.11
2023-05-06T17:35:01.760Z,22.08
2023-05-06T17:37:50.394Z,21.96
2023-05-06T17:40:38.869Z,22.00
2023-05-06T17:43:27.346Z,21.94
2023-05-06T17:46:17.573Z,21.83
2023-05-06T17:49:09.255Z,21.76
2023-05-06T17:51:59.364Z,21.41
2023-05-06T17:55:01.052Z,21.59
2023-05-06T17:57:54.478Z,21.48
2023-05-06T18:00:43.066Z,21.44
2023-05-06T18:03:31.588Z,21.41
2023-05-06T18:06:21.519Z,21.38
2023-05-06T18:09:10.705Z,21.23
2023-05-06T18:11:59.253Z,21.23
2023-05-06T18:14:48.674Z,21.00
2023-05-06T18:17:37.185Z,20.89
2023-05-06T18:20:25.690Z,20.84
2023-05-06T18:23:15.869Z,20.79
2023-05-06T18:26:05.400Z,20.70
2023-05-06T18:28:54.074Z,20.70
2023-05-06T18:31:43.051Z,20.59
2023-05-06T18:34:31.500Z,20.44
2023-05-06T18:37:20.038Z,20.40
2023-05-06T18:40:10.839Z,20.35
2023-05-06T18:42:59.590Z,20.20
2023-05-06T18:45:48.223Z,20.09
2023-05-06T18:48:36.767Z,19.96
2023-05-06T18:51:25.298Z,19.89
2023-05-06T18:54:14.994Z,19.82
2023-05-06T18:57:06.117Z,19.75
2023-05-06T18:59:54.676Z,19.63
2023-05-06T19:02:43.287Z,19.53
2023-05-06T19:05:31.794Z,19.41
2023-05-06T19:08:20.348Z,19.27
2023-05-06T19:11:15.517Z,18.96
2023-05-06T19:14:05.369Z,19.09
2023-05-06T19:16:53.858Z,18.90
2023-05-06T19:19:42.447Z,18.76
2023-05-06T19:22:31.458Z,18.63
2023-05-06T19:25:19.996Z,18.62
2023-05-06T19:28:09.531Z,18.59
2023-05-06T19:30:59.441Z,18.50
2023-05-06T19:33:47.987Z,18.37
2023-05-06T19:36:36.502Z,18.24
2023-05-06T19:39:25.003Z,18.21
2023-05-06T19:42:13.466Z,18.08
2023-05-06T19:45:07.858Z,18.05
2023-05-06T19:47:57.850Z,17.95
2023-05-06T19:50:46.517Z,17.90
2023-05-06T19:53:35.220Z,17.90
2023-05-06T19:56:23.721Z,17.77
2023-05-06T19:59:12.184Z,17.67
2023-05-06T20:02:01.839Z,17.62
2023-05-06T20:04:51.797Z,17.46
2023-05-06T20:07:41.264Z,17.26
2023-05-06T20:10:30.500Z,17.51
2023-05-06T20:13:19.336Z,17.49
2023-05-06T20:16:08.192Z,17.45
2023-05-06T20:18:57.144Z,17.29
2023-05-06T20:21:47.090Z,17.37
2023-05-06T20:24:36.707Z,17.33
2023-05-06T20:27:25.180Z,17.29
2023-05-06T20:30:13.935Z,17.26
2023-05-06T20:33:02.580Z,17.20
2023-05-06T20:35:52.288Z,17.17
2023-05-06T20:38:42.068Z,17.14
2023-05-06T20:41:30.977Z,17.15
2023-05-06T20:44:19.496Z,17.11
2023-05-06T20:47:12.276Z,17.11
2023-05-06T20:50:00.857Z,17.10
2023-05-06T20:52:49.365Z,17.06
2023-05-06T20:55:39.271Z,17.04
2023-05-06T20:58:28.557Z,17.02
2023-05-06T21:01:17.473Z,16.94
2023-05-06T21:04:06.314Z,16.92
2023-05-06T21:06:54.796Z,16.80
2023-05-06T21:09:43.734Z,16.78
2023-05-06T21:12:33.797Z,16.63
2023-05-06T21:15:22.395Z,16.64
2023-05-06T21:18:11.052Z,16.53
2023-05-06T21:20:59.730Z,16.56
2023-05-06T21:23:48.207Z,16.33
2023-05-06T21:26:36.741Z,16.39
2023-05-06T21:29:26.612Z,16.36
2023-05-06T21:32:15.457Z,16.31
2023-05-06T21:35:04.352Z,16.26
2023-05-06T21:37:52.885Z,16.19
2023-05-06T21:40:41.434Z,15.85
2023-05-06T21:43:31.439Z,16.03
2023-05-06T21:46:23.250Z,16.00
2023-05-06T21:49:11.756Z,15.94
2023-05-06T21:52:00.207Z,15.96
2023-05-06T21:54:48.661Z,15.89
2023-05-06T21:57:37.418Z,15.81
2023-05-06T22:00:26.187Z,15.83
2023-05-06T22:03:16.059Z,15.80
2023-05-06T22:06:04.796Z,15.76
2023-05-06T22:08:53.380Z,15.73
2023-05-06T22:11:41.887Z,15.73
2023-05-06T22:14:40.097Z,15.69
2023-05-06T22:17:32.688Z,15.58
2023-05-06T22:20:23.680Z,15.55
2023-05-06T22:23:12.374Z,15.58
2023-05-06T22:26:00.861Z,15.47
2023-05-06T22:28:49.707Z,15.36
2023-05-06T22:31:38.227Z,15.33
2023-05-06T22:34:26.788Z,15.23
2023-05-06T22:37:17.238Z,15.10
2023-05-06T22:40:07.136Z,15.21
2023-05-06T22:42:55.687Z,15.20
2023-05-06T22:45:44.173Z,15.16
2023-05-06T22:48:32.722Z,15.14
2023-05-06T22:51:21.244Z,15.14
2023-05-06T22:54:11.186Z,15.12
2023-05-06T22:56:59.732Z,15.13
2023-05-06T22:59:48.176Z,15.10
2023-05-06T23:02:37.241Z,14.97
2023-05-06T23:05:25.766Z,15.03
2023-05-06T23:08:14.258Z,15.00
2023-05-06T23:11:04.111Z,15.02
2023-05-06T23:13:52.599Z,15.04
2023-05-06T23:16:41.167Z,14.99
2023-05-06T23:19:29.734Z,14.99
2023-05-06T23:22:18.171Z,14.85
2023-05-06T23:25:09.399Z,14.80
2023-05-06T23:28:01.261Z,14.78
2023-05-06T23:30:50.070Z,14.77
2023-05-06T23:33:38.569Z,14.71
2023-05-06T23:36:27.288Z,14.51
2023-05-06T23:39:16.075Z,14.55
2023-05-06T23:42:04.682Z,14.49
2023-05-06T23:44:54.739Z,14.32
2023-05-06T23:47:43.581Z,14.32
2023-05-06T23:50:32.086Z,14.25
2023-05-06T23:53:20.594Z,14.36
2023-05-06T23:56:09.107Z,14.32
2023-05-06T23:58:57.805Z,14.28
